This is the latest recevied weather packets stored in our database for station/object FW7644. If no packets are shown the sender has not sent any weather packets the latest 10 day(s).
| Time | Temp. | Humidity | Pressure | Rain* | Wind** | Luminosity | Snow |
|---|---|---|---|---|---|---|---|
| 1777996777 | 29.44° C | 46% | 1023.3 hPa | 0 mm | - | - | - |
| 1777996475 | 28.89° C | 49% | 1023.4 hPa | 0 mm | - | - | - |
| 1777996173 | 28.33° C | 50% | 1023.5 hPa | 0 mm | - | - | - |
| 1777995872 | 29.44° C | 47% | 1023.4 hPa | 0 mm | - | - | - |
| 1777995570 | 28.33° C | 48% | 1023.5 hPa | 0 mm | - | - | - |
| 1777995268 | 28.33° C | 49% | 1023.5 hPa | 0 mm | - | - | - |
| 1777994966 | 27.78° C | 48% | 1023.6 hPa | 0 mm | - | - | - |
| 1777994664 | 28.89° C | 49% | 1023.6 hPa | 0 mm | - | - | - |
| 1777994363 | 27.78° C | 53% | 1023.6 hPa | 0 mm | - | - | - |
| 1777994061 | 28.89° C | 53% | 1023.7 hPa | 0 mm | - | - | - |
| 1777993760 | 27.22° C | 58% | 1023.8 hPa | 0 mm | - | - | - |
| 1777993458 | 27.78° C | 56% | 1023.8 hPa | 0 mm | - | - | - |
| 1777993156 | 26.11° C | 60% | 1023.9 hPa | 0 mm | - | - | - |
| 1777992854 | 27.78° C | 56% | 1023.9 hPa | 0 mm | - | - | - |
| 1777992553 | 27.22° C | 57% | 1024 hPa | 0 mm | - | - | - |
| 1777992252 | 27.78° C | 57% | 1024 hPa | 0 mm | - | - | - |
| 1777991950 | 27.78° C | 58% | 1024.1 hPa | 0 mm | - | - | - |
| 1777991648 | 27.22° C | 59% | 1024.2 hPa | 0 mm | - | - | - |
| 1777991346 | 26.67° C | 60% | 1024.2 hPa | 0 mm | - | - | - |
| 1777991044 | 27.22° C | 58% | 1024.2 hPa | 0 mm | - | - | - |
| 1777990743 | 27.22° C | 61% | 1024.3 hPa | 0 mm | - | - | - |
| 1777990441 | 26.67° C | 63% | 1024.3 hPa | 0 mm | - | - | - |
| 1777989837 | 26.11° C | 62% | 1024.3 hPa | 0 mm | - | - | - |
| 1777989535 | 26.11° C | 64% | 1024.4 hPa | 0 mm | - | - | - |
| 1777989233 | 26.11° C | 65% | 1024.4 hPa | 0 mm | - | - | - |
* Rain latest hour (hover to see other rain measurements)
** Current wind speed in m/s (hover to see current wind gust speed)